createdAt,value
2019-04-28T00:00:48.333Z,100746.00
2019-04-28T00:03:18.719Z,100746.00
2019-04-28T00:05:51.029Z,100744.00
2019-04-28T00:08:21.225Z,100734.00
2019-04-28T00:10:53.282Z,100735.00
2019-04-28T00:13:25.089Z,100743.00
2019-04-28T00:15:57.075Z,100730.00
2019-04-28T00:18:27.471Z,100740.00
2019-04-28T00:21:15.914Z,100736.00
2019-04-28T00:24:06.110Z,100741.00
2019-04-28T00:26:41.067Z,100742.00
2019-04-28T00:29:11.553Z,100737.00
2019-04-28T00:31:41.980Z,100736.00
2019-04-28T00:34:13.019Z,100735.00
2019-04-28T00:36:45.047Z,100736.00
2019-04-28T00:39:15.523Z,100751.00
2019-04-28T00:41:45.918Z,100752.00
2019-04-28T00:44:16.762Z,100764.00
2019-04-28T00:46:48.122Z,100758.00
2019-04-28T00:49:21.363Z,100761.00
2019-04-28T00:51:52.198Z,100769.00
2019-04-28T00:54:22.586Z,100771.00
2019-04-28T00:56:52.951Z,100772.00
2019-04-28T00:59:23.329Z,100771.00
2019-04-28T01:01:58.308Z,100771.00
2019-04-28T01:04:28.692Z,100769.00
2019-04-28T01:06:59.050Z,100768.00
2019-04-28T01:09:31.474Z,100774.00
2019-04-28T01:12:01.920Z,100770.00
2019-04-28T01:14:32.313Z,100773.00
2019-04-28T01:17:07.006Z,100776.00
2019-04-28T01:19:41.719Z,100774.00
2019-04-28T01:22:12.553Z,100781.00
2019-04-28T01:24:43.004Z,100785.00
2019-04-28T01:27:23.735Z,100780.00
2019-04-28T01:30:05.437Z,100789.00
2019-04-28T01:32:36.579Z,100789.00
2019-04-28T01:35:09.445Z,100782.00
2019-04-28T01:37:40.763Z,100798.00
2019-04-28T01:40:11.894Z,100793.00
2019-04-28T01:42:42.259Z,100798.00
2019-04-28T01:45:12.644Z,100784.00
2019-04-28T01:47:43.013Z,100806.00
2019-04-28T01:50:13.550Z,100799.00
2019-04-28T01:52:44.911Z,100802.00
2019-04-28T01:55:15.317Z,100804.00
2019-04-28T01:57:45.667Z,100808.00
2019-04-28T02:00:23.053Z,100802.00
2019-04-28T02:02:50.380Z,100811.00
2019-04-28T02:05:20.664Z,100811.00
2019-04-28T02:07:51.065Z,100809.00
2019-04-28T02:10:21.837Z,100813.00
2019-04-28T02:12:52.299Z,100820.00
2019-04-28T02:15:22.681Z,100811.00
2019-04-28T02:17:53.035Z,100813.00
2019-04-28T02:20:24.184Z,100818.00
2019-04-28T02:22:56.199Z,100822.00
2019-04-28T02:25:26.597Z,100817.00
2019-04-28T02:27:57.234Z,100823.00
2019-04-28T02:30:44.078Z,100825.00
2019-04-28T02:33:01.614Z,100843.00
2019-04-28T02:35:34.226Z,100836.00
2019-04-28T02:38:04.192Z,100830.00
2019-04-28T02:40:34.571Z,100843.00
2019-04-28T02:43:04.999Z,100832.00
2019-04-28T02:45:37.799Z,100843.00
2019-04-28T02:48:11.112Z,100838.00
2019-04-28T02:50:43.156Z,100844.00
2019-04-28T02:53:16.133Z,100838.00
2019-04-28T02:55:46.510Z,100846.00
2019-04-28T02:58:17.339Z,100846.00
2019-04-28T03:01:02.763Z,100846.00
2019-04-28T03:03:21.120Z,100851.00
2019-04-28T03:05:51.691Z,100857.00
2019-04-28T03:08:22.220Z,100864.00
2019-04-28T03:10:52.603Z,100862.00
2019-04-28T03:13:22.956Z,100864.00
2019-04-28T03:15:53.341Z,100860.00
2019-04-28T03:18:23.930Z,100867.00
2019-04-28T03:20:54.316Z,100865.00
2019-04-28T03:23:24.907Z,100868.00
2019-04-28T03:26:11.134Z,100863.00
2019-04-28T03:28:56.003Z,100868.00
2019-04-28T03:32:08.001Z,100872.00
2019-04-28T03:34:04.300Z,100871.00
2019-04-28T03:36:35.094Z,100872.00
2019-04-28T03:39:07.498Z,100874.00
2019-04-28T03:41:40.553Z,100861.00
2019-04-28T03:44:11.531Z,100875.00
2019-04-28T03:46:46.609Z,100883.00
2019-04-28T03:49:33.654Z,100885.00
2019-04-28T03:52:06.153Z,100892.00
2019-04-28T03:54:37.498Z,100891.00
2019-04-28T03:57:07.880Z,100885.00
2019-04-28T03:59:41.237Z,100888.00
2019-04-28T04:02:11.262Z,100893.00
2019-04-28T04:04:41.978Z,100891.00
2019-04-28T04:07:12.390Z,100892.00
2019-04-28T04:10:00.926Z,100897.00
2019-04-28T04:12:34.343Z,100900.00
2019-04-28T04:15:14.321Z,100893.00
2019-04-28T04:18:04.668Z,100899.00
2019-04-28T04:20:35.044Z,100888.00
2019-04-28T04:23:05.726Z,100902.00
2019-04-28T04:25:36.084Z,100896.00
2019-04-28T04:28:06.460Z,100907.00
2019-04-28T04:30:36.828Z,100910.00
2019-04-28T04:33:07.207Z,100918.00
2019-04-28T04:35:37.572Z,100927.00
2019-04-28T04:38:10.331Z,100923.00
2019-04-28T04:40:41.277Z,100925.00
2019-04-28T04:43:12.157Z,100916.00
2019-04-28T04:45:42.522Z,100919.00
2019-04-28T04:48:12.911Z,100922.00
2019-04-28T04:50:44.324Z,100903.00
2019-04-28T04:53:14.770Z,100908.00
2019-04-28T04:55:45.102Z,100908.00
2019-04-28T04:58:16.460Z,100931.00
2019-04-28T05:00:51.024Z,100936.00
2019-04-28T05:03:26.176Z,100946.00
2019-04-28T05:05:56.608Z,100956.00
2019-04-28T05:08:40.013Z,100951.00
2019-04-28T05:11:11.376Z,100947.00
2019-04-28T05:13:41.851Z,100960.00
2019-04-28T05:16:12.218Z,100966.00
2019-04-28T05:18:42.611Z,100972.00
2019-04-28T05:21:12.967Z,100979.00
2019-04-28T05:23:54.271Z,100986.00
2019-04-28T05:26:26.214Z,100990.00
2019-04-28T05:28:56.600Z,100986.00
2019-04-28T05:31:26.958Z,100991.00
2019-04-28T05:33:57.354Z,100996.00
2019-04-28T05:36:31.706Z,100998.00
2019-04-28T05:39:00.232Z,101004.00
2019-04-28T05:41:30.630Z,101013.00
2019-04-28T05:44:01.013Z,101010.00
2019-04-28T05:46:31.367Z,101025.00
2019-04-28T05:49:06.291Z,101026.00
2019-04-28T05:51:40.126Z,101022.00
2019-04-28T05:54:19.730Z,101021.00
2019-04-28T05:57:02.462Z,101032.00
2019-04-28T05:59:53.374Z,101013.00
2019-04-28T06:02:39.543Z,101014.00
2019-04-28T06:05:10.186Z,101010.00
2019-04-28T06:07:42.275Z,101016.00
2019-04-28T06:10:12.760Z,101019.00
2019-04-28T06:12:43.102Z,101016.00
2019-04-28T06:15:13.615Z,101012.00
2019-04-28T06:17:43.971Z,101011.00
2019-04-28T06:20:15.260Z,101009.00
2019-04-28T06:22:45.623Z,101012.00
2019-04-28T06:25:16.026Z,101018.00
2019-04-28T06:27:46.402Z,101008.00
2019-04-28T06:30:16.812Z,101006.00
2019-04-28T06:32:47.199Z,101014.00
2019-04-28T06:35:17.607Z,101012.00
2019-04-28T06:37:47.983Z,101025.00
2019-04-28T06:40:18.380Z,101035.00
2019-04-28T06:42:48.751Z,101027.00
2019-04-28T06:45:19.155Z,101036.00
2019-04-28T06:47:49.613Z,101039.00
2019-04-28T06:50:20.006Z,101039.00
2019-04-28T06:52:50.385Z,101038.00
2019-04-28T06:55:20.784Z,101034.00
2019-04-28T06:57:51.162Z,101038.00
2019-04-28T07:00:21.549Z,101043.00
2019-04-28T07:02:51.921Z,101045.00
2019-04-28T07:05:22.361Z,101048.00
2019-04-28T07:07:52.709Z,101042.00
2019-04-28T07:10:23.103Z,101036.00
2019-04-28T07:12:53.480Z,101048.00
2019-04-28T07:15:23.930Z,101047.00
2019-04-28T07:17:54.369Z,101046.00
2019-04-28T07:20:38.518Z,101041.00
2019-04-28T07:23:28.794Z,101051.00
2019-04-28T07:25:59.267Z,101061.00
2019-04-28T07:28:29.629Z,101059.00
2019-04-28T07:31:00.033Z,101070.00
2019-04-28T07:33:36.077Z,101065.00
2019-04-28T07:36:02.569Z,101065.00
2019-04-28T07:38:32.948Z,101075.00
2019-04-28T07:41:03.350Z,101079.00
2019-04-28T07:43:33.719Z,101081.00
2019-04-28T07:46:04.109Z,101071.00
2019-04-28T07:48:34.467Z,101087.00
2019-04-28T07:51:04.867Z,101096.00
2019-04-28T07:53:36.873Z,101101.00
2019-04-28T07:56:07.512Z,101105.00
2019-04-28T07:58:37.916Z,101115.00
2019-04-28T08:01:09.918Z,101117.00
2019-04-28T08:03:49.355Z,101112.00
2019-04-28T08:06:12.367Z,101126.00
2019-04-28T08:08:42.753Z,101123.00
2019-04-28T08:11:13.168Z,101125.00
2019-04-28T08:13:43.540Z,101135.00
2019-04-28T08:16:13.909Z,101138.00
2019-04-28T08:18:44.285Z,101135.00
2019-04-28T08:21:14.646Z,101140.00
2019-04-28T08:23:47.473Z,101138.00
2019-04-28T08:26:17.099Z,101138.00
2019-04-28T08:28:47.493Z,101141.00
2019-04-28T08:31:19.495Z,101147.00
2019-04-28T08:34:01.834Z,101164.00
2019-04-28T08:36:23.597Z,101163.00
2019-04-28T08:38:53.979Z,101164.00
2019-04-28T08:41:24.516Z,101164.00
2019-04-28T08:43:54.889Z,101168.00
2019-04-28T08:46:25.248Z,101175.00
2019-04-28T08:48:55.638Z,101179.00
2019-04-28T08:51:25.999Z,101178.00
2019-04-28T08:53:56.379Z,101180.00
2019-04-28T08:56:26.746Z,101179.00
2019-04-28T08:58:57.124Z,101186.00
2019-04-28T09:01:27.495Z,101185.00
2019-04-28T09:03:57.960Z,101186.00
2019-04-28T09:06:28.342Z,101188.00
2019-04-28T09:08:58.830Z,101184.00
2019-04-28T09:11:29.174Z,101185.00
2019-04-28T09:13:59.569Z,101200.00
2019-04-28T09:16:29.932Z,101191.00
2019-04-28T09:19:00.321Z,101204.00
2019-04-28T09:21:30.683Z,101210.00
2019-04-28T09:24:01.080Z,101215.00
2019-04-28T09:26:31.439Z,101220.00
2019-04-28T09:29:01.941Z,101225.00
2019-04-28T09:31:38.485Z,101217.00
2019-04-28T09:34:08.868Z,101218.00
2019-04-28T09:36:39.362Z,101214.00
2019-04-28T09:39:14.809Z,101215.00
2019-04-28T09:41:46.811Z,101221.00
2019-04-28T09:44:28.106Z,101214.00
2019-04-28T09:46:58.455Z,101219.00
2019-04-28T09:49:29.269Z,101218.00
2019-04-28T09:51:59.688Z,101220.00
2019-04-28T09:54:30.087Z,101225.00
2019-04-28T09:57:00.511Z,101228.00
2019-04-28T09:59:30.969Z,101228.00
2019-04-28T10:02:01.320Z,101226.00
2019-04-28T10:04:41.381Z,101227.00
2019-04-28T10:07:04.487Z,101224.00
2019-04-28T10:09:34.856Z,101225.00
2019-04-28T10:12:05.485Z,101225.00
2019-04-28T10:14:35.898Z,101228.00
2019-04-28T10:17:06.259Z,101239.00
2019-04-28T10:19:36.647Z,101232.00
2019-04-28T10:22:07.002Z,101220.00
2019-04-28T10:24:37.382Z,101224.00
2019-04-28T10:27:08.484Z,101229.00
2019-04-28T10:29:38.998Z,101231.00
2019-04-28T10:32:09.337Z,101241.00
2019-04-28T10:34:40.897Z,101248.00
2019-04-28T10:37:12.248Z,101242.00
2019-04-28T10:39:46.923Z,101241.00
2019-04-28T10:42:18.607Z,101234.00
2019-04-28T10:44:50.286Z,101238.00
2019-04-28T10:47:20.913Z,101232.00
2019-04-28T10:49:51.295Z,101237.00
2019-04-28T10:52:21.777Z,101234.00
2019-04-28T10:54:52.145Z,101241.00
2019-04-28T10:57:23.640Z,101247.00
2019-04-28T10:59:55.069Z,101245.00
2019-04-28T11:02:25.511Z,101248.00
2019-04-28T11:05:08.645Z,101254.00
2019-04-28T11:07:36.096Z,101258.00
2019-04-28T11:10:17.326Z,101253.00
2019-04-28T11:12:47.690Z,101261.00
2019-04-28T11:15:19.771Z,101270.00
2019-04-28T11:17:50.247Z,101267.00
2019-04-28T11:20:20.690Z,101266.00
2019-04-28T11:22:51.442Z,101264.00
2019-04-28T11:25:21.892Z,101267.00
2019-04-28T11:27:55.312Z,101264.00
2019-04-28T11:30:24.726Z,101266.00
2019-04-28T11:33:12.832Z,101266.00
2019-04-28T11:35:44.889Z,101255.00
2019-04-28T11:38:15.232Z,101266.00
2019-04-28T11:40:45.863Z,101277.00
2019-04-28T11:43:16.225Z,101279.00
2019-04-28T11:45:46.634Z,101275.00
2019-04-28T11:48:18.071Z,101276.00
2019-04-28T11:50:48.461Z,101283.00
2019-04-28T11:53:18.930Z,101275.00
2019-04-28T11:55:49.330Z,101266.00
2019-04-28T11:58:19.783Z,101273.00
2019-04-28T12:00:52.305Z,101272.00
2019-04-28T12:03:24.755Z,101267.00
2019-04-28T12:50:49.704Z,101261.00
2019-04-28T12:53:22.401Z,101259.00
2019-04-28T12:55:53.828Z,101253.00
2019-04-28T12:58:24.289Z,101259.00
2019-04-28T13:01:11.269Z,101269.00
2019-04-28T13:03:46.282Z,101265.00
2019-04-28T13:06:18.361Z,101265.00
2019-04-28T13:08:48.745Z,101262.00
2019-04-28T13:11:19.107Z,101272.00
2019-04-28T13:13:49.541Z,101271.00
2019-04-28T13:16:19.893Z,101261.00
2019-04-28T13:18:50.280Z,101269.00
2019-04-28T13:21:20.755Z,101264.00
2019-04-28T13:23:51.166Z,101266.00
2019-04-28T13:26:21.679Z,101271.00
2019-04-28T13:28:52.044Z,101268.00
2019-04-28T13:31:22.456Z,101282.00
2019-04-28T13:33:56.247Z,101278.00
2019-04-28T13:36:25.400Z,101280.00
2019-04-28T13:38:57.418Z,101285.00
2019-04-28T13:41:27.795Z,101281.00
2019-04-28T13:43:58.173Z,101289.00
2019-04-28T13:46:28.826Z,101288.00
2019-04-28T13:48:59.625Z,101286.00
2019-04-28T13:51:30.111Z,101285.00
2019-04-28T13:54:02.184Z,101275.00
2019-04-28T13:56:32.619Z,101286.00
2019-04-28T13:59:04.622Z,101275.00
2019-04-28T14:01:39.567Z,101283.00
2019-04-28T14:04:11.647Z,101271.00
2019-04-28T14:06:44.574Z,101272.00
2019-04-28T14:09:16.227Z,101272.00
2019-04-28T14:11:47.024Z,101273.00
2019-04-28T14:14:17.464Z,101272.00
2019-04-28T14:16:47.782Z,101266.00
2019-04-28T14:19:18.166Z,101272.00
2019-04-28T14:21:48.570Z,101280.00
2019-04-28T14:24:18.958Z,101272.00
2019-04-28T14:26:49.279Z,101277.00
2019-04-28T14:29:19.683Z,101268.00
2019-04-28T14:31:50.040Z,101279.00
2019-04-28T14:34:20.421Z,101274.00
2019-04-28T14:36:50.783Z,101272.00
2019-04-28T14:39:21.386Z,101273.00
2019-04-28T14:41:51.785Z,101280.00
2019-04-28T14:44:22.104Z,101279.00
2019-04-28T14:46:52.465Z,101286.00
2019-04-28T14:49:22.847Z,101282.00
2019-04-28T14:51:53.202Z,101291.00
2019-04-28T14:54:23.588Z,101292.00
2019-04-28T14:56:53.971Z,101286.00
2019-04-28T14:59:24.380Z,101280.00
2019-04-28T15:02:14.797Z,101284.00
2019-04-28T15:04:49.629Z,101283.00
2019-04-28T15:07:37.953Z,101279.00
2019-04-28T15:10:19.827Z,101292.00
2019-04-28T15:12:50.226Z,101296.00
2019-04-28T15:15:20.660Z,101291.00
2019-04-28T15:17:51.016Z,101293.00
2019-04-28T15:20:21.451Z,101289.00
2019-04-28T15:22:51.757Z,101283.00
2019-04-28T15:25:22.135Z,101293.00
2019-04-28T15:27:52.491Z,101293.00
2019-04-28T15:30:23.045Z,101289.00
2019-04-28T15:32:53.415Z,101294.00
2019-04-28T15:35:23.937Z,101295.00
2019-04-28T15:37:54.294Z,101296.00
2019-04-28T15:40:24.683Z,101292.00
2019-04-28T15:42:55.062Z,101300.00
2019-04-28T15:45:25.422Z,101309.00
2019-04-28T15:47:55.811Z,101302.00
2019-04-28T15:50:26.178Z,101304.00
2019-04-28T15:52:56.644Z,101313.00
2019-04-28T15:55:31.312Z,101304.00
2019-04-28T15:58:03.350Z,101306.00
2019-04-28T16:00:33.708Z,101305.00
2019-04-28T16:03:04.098Z,101302.00
2019-04-28T16:05:34.472Z,101303.00
2019-04-28T16:08:05.029Z,101303.00
2019-04-28T16:10:35.392Z,101306.00
2019-04-28T16:13:05.785Z,101300.00
2019-04-28T16:15:36.149Z,101296.00
2019-04-28T16:18:06.528Z,101298.00
2019-04-28T16:20:36.896Z,101298.00
2019-04-28T16:23:07.312Z,101295.00
2019-04-28T16:25:38.798Z,101298.00
2019-04-28T16:28:22.263Z,101304.00
2019-04-28T16:30:53.888Z,101311.00
2019-04-28T16:33:24.346Z,101314.00
2019-04-28T16:35:54.859Z,101309.00
2019-04-28T16:38:25.243Z,101306.00
2019-04-28T16:40:55.610Z,101313.00
2019-04-28T16:43:26.002Z,101316.00
2019-04-28T16:45:56.499Z,101308.00
2019-04-28T16:48:31.833Z,101308.00
2019-04-28T16:51:02.197Z,101313.00
2019-04-28T16:53:32.716Z,101320.00
2019-04-28T16:56:04.783Z,101322.00
2019-04-28T16:58:39.941Z,101325.00
2019-04-28T17:01:28.204Z,101319.00
2019-04-28T17:03:58.594Z,101321.00
2019-04-28T17:06:30.557Z,101325.00
2019-04-28T17:09:01.033Z,101323.00
2019-04-28T17:11:33.127Z,101330.00
2019-04-28T17:14:03.757Z,101327.00
2019-04-28T17:16:35.246Z,101330.00
2019-04-28T17:19:05.653Z,101335.00
2019-04-28T17:21:36.248Z,101340.00
2019-04-28T17:24:06.644Z,101331.00
2019-04-28T17:26:36.998Z,101334.00
2019-04-28T17:29:07.451Z,101334.00
2019-04-28T17:31:41.280Z,101336.00
2019-04-28T17:34:13.077Z,101338.00
2019-04-28T17:39:35.158Z,101346.00
2019-04-28T17:42:18.629Z,101349.00
2019-04-28T17:44:51.099Z,101352.00
2019-04-28T17:47:43.105Z,101342.00
2019-04-28T17:50:15.519Z,101356.00
2019-04-28T17:52:46.516Z,101362.00
2019-04-28T17:55:17.758Z,101359.00
2019-04-28T17:57:49.850Z,101361.00
2019-04-28T18:03:29.510Z,101370.00
2019-04-28T18:06:17.513Z,101369.00
2019-04-28T18:08:40.040Z,101367.00
2019-04-28T18:11:10.409Z,101371.00
2019-04-28T18:13:40.778Z,101369.00
2019-04-28T18:16:29.961Z,101370.00
2019-04-28T18:19:04.711Z,101387.00
2019-04-28T18:21:35.146Z,101390.00
2019-04-28T18:24:05.606Z,101400.00
2019-04-28T18:26:35.963Z,101400.00
2019-04-28T18:29:06.430Z,101397.00
2019-04-28T18:31:45.017Z,101400.00
2019-04-28T18:34:25.883Z,101408.00
2019-04-28T18:36:57.883Z,101404.00
2019-04-28T18:42:28.655Z,101420.00
2019-04-28T18:44:59.181Z,101425.00
2019-04-28T18:47:29.544Z,101423.00
2019-04-28T18:49:59.938Z,101426.00
2019-04-28T18:52:30.471Z,101437.00
2019-04-28T18:55:00.856Z,101436.00
2019-04-28T18:57:32.287Z,101440.00
2019-04-28T19:00:02.708Z,101433.00
2019-04-28T19:02:38.124Z,101437.00
2019-04-28T19:05:10.507Z,101437.00
2019-04-28T19:07:48.459Z,101437.00
2019-04-28T19:10:40.088Z,101436.00
2019-04-28T19:13:25.593Z,101438.00
2019-04-28T19:16:03.365Z,101439.00
2019-04-28T19:18:41.027Z,101437.00
2019-04-28T19:21:11.402Z,101447.00
2019-04-28T19:23:41.755Z,101453.00
2019-04-28T19:26:12.135Z,101455.00
2019-04-28T19:28:42.497Z,101442.00
2019-04-28T19:31:12.878Z,101449.00
2019-04-28T19:33:43.238Z,101450.00
2019-04-28T19:36:13.608Z,101451.00
2019-04-28T19:38:43.957Z,101446.00
2019-04-28T19:41:14.596Z,101444.00
2019-04-28T19:43:44.948Z,101450.00
2019-04-28T19:46:16.956Z,101447.00
2019-04-28T19:48:48.042Z,101448.00
2019-04-28T19:51:31.063Z,101452.00
2019-04-28T19:53:51.105Z,101449.00
2019-04-28T19:56:29.188Z,101454.00
2019-04-28T19:59:01.183Z,101458.00
2019-04-28T20:01:33.793Z,101455.00
2019-04-28T20:04:04.286Z,101450.00
2019-04-28T20:06:34.657Z,101450.00
2019-04-28T20:09:06.715Z,101448.00
2019-04-28T20:11:38.706Z,101453.00
2019-04-28T20:14:09.062Z,101450.00
2019-04-28T20:16:39.441Z,101447.00
2019-04-28T20:19:09.792Z,101441.00
2019-04-28T20:21:40.165Z,101438.00
2019-04-28T20:24:10.520Z,101450.00
2019-04-28T20:26:40.896Z,101450.00
2019-04-28T20:29:11.246Z,101449.00
2019-04-28T20:31:42.593Z,101452.00
2019-04-28T20:34:12.939Z,101452.00
2019-04-28T20:36:56.935Z,101445.00
2019-04-28T20:39:28.925Z,101446.00
2019-04-28T20:42:00.944Z,101446.00
2019-04-28T20:44:31.290Z,101444.00
2019-04-28T20:47:01.765Z,101461.00
2019-04-28T20:49:32.124Z,101459.00
2019-04-28T20:52:02.498Z,101461.00
2019-04-28T20:54:32.844Z,101455.00
2019-04-28T20:57:03.222Z,101471.00
2019-04-28T20:59:33.571Z,101461.00
2019-04-28T21:02:03.941Z,101468.00
2019-04-28T21:04:34.300Z,101470.00
2019-04-28T21:07:04.674Z,101464.00
2019-04-28T21:09:35.050Z,101464.00
2019-04-28T21:12:05.413Z,101467.00
2019-04-28T21:14:35.789Z,101471.00
2019-04-28T21:17:06.218Z,101475.00
2019-04-28T21:19:36.592Z,101476.00
2019-04-28T21:22:06.936Z,101470.00
2019-04-28T21:24:37.318Z,101468.00
2019-04-28T21:27:07.675Z,101458.00
2019-04-28T21:29:38.056Z,101473.00
2019-04-28T21:32:08.412Z,101469.00
2019-04-28T21:34:38.785Z,101472.00
2019-04-28T21:37:09.144Z,101474.00
2019-04-28T21:39:39.524Z,101459.00
2019-04-28T21:42:11.513Z,101473.00
2019-04-28T21:44:49.623Z,101473.00
2019-04-28T21:47:30.913Z,101470.00
2019-04-28T21:50:01.677Z,101476.00
2019-04-28T21:52:32.978Z,101478.00
2019-04-28T21:55:06.129Z,101475.00
2019-04-28T21:57:36.485Z,101482.00
2019-04-28T22:00:10.901Z,101483.00
2019-04-28T22:02:40.421Z,101481.00
2019-04-28T22:05:10.964Z,101477.00
2019-04-28T22:07:42.881Z,101478.00
2019-04-28T22:10:13.336Z,101479.00
2019-04-28T22:12:43.689Z,101471.00
2019-04-28T22:15:14.385Z,101481.00
2019-04-28T22:17:44.749Z,101479.00
2019-04-28T22:20:15.123Z,101483.00
2019-04-28T22:22:45.468Z,101478.00
2019-04-28T22:25:23.446Z,101484.00
2019-04-28T22:27:53.798Z,101492.00
2019-04-28T22:30:24.172Z,101477.00
2019-04-28T22:32:54.522Z,101476.00
2019-04-28T22:35:24.896Z,101472.00
2019-04-28T22:37:55.245Z,101486.00
2019-04-28T22:40:25.626Z,101482.00
2019-04-28T22:42:56.050Z,101477.00
2019-04-28T22:45:26.423Z,101478.00
2019-04-28T22:47:56.777Z,101466.00
2019-04-28T22:50:58.289Z,101462.00
2019-04-28T22:53:30.278Z,101473.00
2019-04-28T22:56:02.294Z,101466.00
2019-04-28T22:58:40.009Z,101465.00
2019-04-28T23:01:17.796Z,101464.00
2019-04-28T23:04:05.017Z,101460.00
2019-04-28T23:06:36.389Z,101467.00
2019-04-28T23:09:10.594Z,101462.00
2019-04-28T23:11:42.044Z,101459.00
2019-04-28T23:14:12.394Z,101461.00
2019-04-28T23:16:42.766Z,101460.00
2019-04-28T23:19:14.762Z,101455.00
2019-04-28T23:21:49.516Z,101449.00
2019-04-28T23:24:19.902Z,101445.00
2019-04-28T23:26:50.255Z,101446.00
2019-04-28T23:29:20.609Z,101448.00
2019-04-28T23:31:51.053Z,101445.00
2019-04-28T23:34:21.403Z,101445.00
2019-04-28T23:36:51.848Z,101437.00
2019-04-28T23:39:22.222Z,101447.00
2019-04-28T23:41:54.233Z,101440.00
2019-04-28T23:44:24.580Z,101447.00
2019-04-28T23:46:56.595Z,101435.00
2019-04-28T23:49:28.831Z,101443.00
2019-04-28T23:52:13.341Z,101435.00
2019-04-28T23:54:51.330Z,101433.00
2019-04-28T23:57:21.698Z,101433.00
2019-04-28T23:59:52.050Z,101429.00
